METAR Data
IDs: Format: Raw Decoded Include TAF

Data at: 1332 UTC 25 Jun 2019

METAR for:WSSL (Singapore/Seletar Ar, --, SR)
Text:WSSL 251300Z 13007KT 100V160 9999 FEW018 SCT140 29/25 Q1010
Temperature: 29.0°C ( 84°F)
Dewpoint: 25.0°C ( 77°F) [RH = 79%]
Pressure (altimeter):29.82 inches Hg (1010.0 mb)
Winds:from the SE (130 degrees) at 8 MPH (7 knots; 3.6 m/s)
Visibility:6 or more sm (10+ km)
Ceiling:at least 12,000 feet AGL
Clouds: few clouds at 1800 feet AGL, scattered clouds at 14000 feet AGL

TAF for:WSSL (Singapore/Seletar Ar, --, SR) issued at 1100 UTC 25 Jun 2019
Text:TAF WSSL 251100Z 2512/2618 16010KT 9999 FEW015 SCT020
Forecast period:1200 UTC 25 June 2019 to 1800 UTC 26 June 2019
Forecast type:FROM: standard forecast or significant change
Winds:from the SSE (160 degrees) at 12 MPH (10 knots; 5.1 m/s)
Visibility:6 or more sm (10+ km)
Ceiling:at least 12,000 feet AGL
Clouds: few clouds at 1500 feet AGL, scattered clouds at 2000 feet AGL
Text:TEMPO 2602/2606 3000 TSRA FEW012CB BKN015
Forecast period:0200 to 0600 UTC 26 June 2019
Forecast type:TEMPORARY: The following changes expected for less than half the time period
Visibility: 1.86 sm ( 2.99 km)
Ceiling:1500 feet AGL
Clouds: few clouds at 1200 feet AGL, broken clouds at 1500 feet AGL
Weather:TSRA (rain associated with thunderstorm(s))